OEMA/MED METAR and TAF weather

Enter ICAO airport designator
Station Type Date Time Source
OEMA METAR 2021/04/17 02:00 UTC NOAA

OEMA 170200Z 10013KT 9999 FEW040 21/12 Q1018 NOSIG


Station Type Date Time Source
OEMA Decoded METAR 2021/04/17 02:00 UTC NOAA

Madinah, Saudi Arabia (OEMA) 24-33N 039-42E 636M
Apr 16, 2021 - 10:00 PM EDT / 2021.04.17 0200 UTC
Wind: from the E (100 degrees) at 15 MPH (13 KT):0
Visibility: greater than 7 mile(s):0
Sky conditions: mostly clear
Temperature: 69 F (21 C)
Dew Point: 53 F (12 C)
Relative Humidity: 56%
Pressure (altimeter): 30.06 in. Hg (1018 hPa)
ob: OEMA 170200Z 10013KT 9999 FEW040 21/12 Q1018 NOSIG
cycle: 2

Station Type Date Time Source
OEMA TAF 2021/04/16 18:33 UTC NOAA

TAF OEMA 161700Z 1618/1724 09008KT 8000 SCT045
TEMPO 1618/1702 4000 BLDU PROB30
TEMPO 1618/1700 FEW035CB

Example: see airport list